createdAt,value
2018-10-21T00:01:04.581Z,21.20
2018-10-21T00:03:33.616Z,21.20
2018-10-21T00:06:03.975Z,21.20
2018-10-21T00:08:32.993Z,21.20
2018-10-21T00:11:02.041Z,21.20
2018-10-21T00:13:31.331Z,21.20
2018-10-21T00:16:00.760Z,21.20
2018-10-21T00:18:30.477Z,21.10
2018-10-21T00:20:59.568Z,21.20
2018-10-21T00:23:28.607Z,21.10
2018-10-21T00:25:58.243Z,21.20
2018-10-21T00:28:27.297Z,21.20
2018-10-21T00:30:56.882Z,21.20
2018-10-21T00:33:26.670Z,21.10
2018-10-21T00:35:55.734Z,21.10
2018-10-21T00:38:24.773Z,21.10
2018-10-21T00:40:53.863Z,21.10
2018-10-21T00:43:22.898Z,21.10
2018-10-21T00:45:52.018Z,21.10
2018-10-21T00:48:22.281Z,21.10
2018-10-21T00:50:51.331Z,21.10
2018-10-21T00:53:20.933Z,21.10
2018-10-21T00:55:50.389Z,21.10
2018-10-21T00:58:19.565Z,21.10
2018-10-21T01:00:48.594Z,21.10
2018-10-21T01:03:18.445Z,21.10
2018-10-21T01:05:47.486Z,21.10
2018-10-21T01:08:16.541Z,21.10
2018-10-21T01:10:45.593Z,21.10
2018-10-21T01:13:14.647Z,21.10
2018-10-21T01:15:45.181Z,21.10
2018-10-21T01:18:14.853Z,21.10
2018-10-21T01:20:43.894Z,21.10
2018-10-21T01:23:12.925Z,21.10
2018-10-21T01:25:41.978Z,21.10
2018-10-21T01:28:11.038Z,21.10
2018-10-21T01:30:40.994Z,21.00
2018-10-21T01:33:10.569Z,21.00
2018-10-21T01:35:39.785Z,21.00
2018-10-21T01:38:08.881Z,21.00
2018-10-21T01:40:46.602Z,21.00
2018-10-21T01:43:19.949Z,21.00
2018-10-21T01:45:49.040Z,21.00
2018-10-21T01:48:19.845Z,21.00
2018-10-21T01:50:49.775Z,21.00
2018-10-21T01:53:20.018Z,21.00
2018-10-21T01:55:49.190Z,21.00
2018-10-21T01:58:18.285Z,21.00
2018-10-21T02:00:48.378Z,21.00
2018-10-21T02:03:17.700Z,21.00
2018-10-21T02:05:47.345Z,21.00
2018-10-21T02:08:17.533Z,21.00
2018-10-21T02:10:46.591Z,21.00
2018-10-21T02:13:16.337Z,20.90
2018-10-21T02:15:46.178Z,21.00
2018-10-21T02:18:15.769Z,20.90
2018-10-21T02:20:44.814Z,20.90
2018-10-21T02:23:13.845Z,20.90
2018-10-21T02:25:43.109Z,20.90
2018-10-21T02:28:12.158Z,20.90
2018-10-21T02:30:42.730Z,20.90
2018-10-21T02:33:12.940Z,20.90
2018-10-21T02:35:41.919Z,20.90
2018-10-21T02:38:10.988Z,20.90
2018-10-21T02:41:53.921Z,20.90
2018-10-21T02:44:23.518Z,20.90
2018-10-21T02:46:53.862Z,20.90
2018-10-21T02:49:24.062Z,20.90
2018-10-21T02:51:59.887Z,20.90
2018-10-21T02:54:30.161Z,20.90
2018-10-21T02:56:59.749Z,20.90
2018-10-21T02:59:28.689Z,20.90
2018-10-21T03:01:57.907Z,20.90
2018-10-21T03:04:26.977Z,20.90
2018-10-21T03:06:56.054Z,20.90
2018-10-21T03:09:25.581Z,20.80
2018-10-21T03:11:54.938Z,20.90
2018-10-21T03:14:25.526Z,20.80
2018-10-21T03:16:54.702Z,20.80
2018-10-21T03:19:24.367Z,20.80
2018-10-21T03:21:54.366Z,20.80
2018-10-21T03:24:23.385Z,20.80
2018-10-21T03:26:52.457Z,20.80
2018-10-21T03:29:21.490Z,20.80
2018-10-21T03:31:51.954Z,20.80
2018-10-21T03:34:21.514Z,20.80
2018-10-21T03:36:50.561Z,20.80
2018-10-21T03:39:19.587Z,20.80
2018-10-21T03:41:48.641Z,20.80
2018-10-21T03:44:18.088Z,20.80
2018-10-21T03:46:47.662Z,20.80
2018-10-21T03:49:17.769Z,20.80
2018-10-21T03:51:47.422Z,20.80
2018-10-21T03:54:17.029Z,20.80
2018-10-21T03:56:46.082Z,20.80
2018-10-21T03:59:15.117Z,20.70
2018-10-21T04:01:44.315Z,20.70
2018-10-21T04:04:13.384Z,20.70
2018-10-21T04:06:43.144Z,20.70
2018-10-21T04:09:12.229Z,20.70
2018-10-21T04:11:41.280Z,20.70
2018-10-21T04:14:10.731Z,20.70
2018-10-21T04:16:39.770Z,20.70
2018-10-21T04:19:09.112Z,20.70
2018-10-21T04:21:38.174Z,20.70
2018-10-21T04:24:07.212Z,20.70
2018-10-21T04:26:36.283Z,20.70
2018-10-21T04:29:05.332Z,20.70
2018-10-21T04:31:34.955Z,20.70
2018-10-21T04:34:05.575Z,20.60
2018-10-21T04:36:35.713Z,20.60
2018-10-21T04:39:41.609Z,20.60
2018-10-21T04:42:10.661Z,20.60
2018-10-21T04:44:40.274Z,20.60
2018-10-21T04:47:10.774Z,20.60
2018-10-21T04:49:40.350Z,20.60
2018-10-21T04:52:09.965Z,20.60
2018-10-21T04:54:39.020Z,20.60
2018-10-21T04:57:08.545Z,20.60
2018-10-21T04:59:38.898Z,20.60
2018-10-21T05:02:08.074Z,20.60
2018-10-21T05:04:37.210Z,20.60
2018-10-21T05:07:06.279Z,20.60
2018-10-21T05:09:35.311Z,20.60
2018-10-21T05:12:04.574Z,20.50
2018-10-21T05:14:38.194Z,20.60
2018-10-21T05:17:07.184Z,20.50
2018-10-21T05:19:36.746Z,20.50
2018-10-21T05:22:06.517Z,20.50
2018-10-21T05:24:35.797Z,20.50
2018-10-21T05:27:05.894Z,20.50
2018-10-21T05:29:35.654Z,20.50
2018-10-21T05:32:05.603Z,20.50
2018-10-21T05:34:35.027Z,20.50
2018-10-21T05:37:04.407Z,20.50
2018-10-21T05:39:34.149Z,20.50
2018-10-21T05:42:03.771Z,20.50
2018-10-21T05:44:33.148Z,20.50
2018-10-21T05:47:02.329Z,20.50
2018-10-21T05:49:32.186Z,20.50
2018-10-21T05:52:01.279Z,20.50
2018-10-21T05:54:30.283Z,20.50
2018-10-21T05:56:59.329Z,20.40
2018-10-21T05:59:28.375Z,20.40
2018-10-21T06:01:57.503Z,20.40
2018-10-21T06:04:26.550Z,20.40
2018-10-21T06:06:55.670Z,20.40
2018-10-21T06:09:24.761Z,20.40
2018-10-21T06:11:54.170Z,20.40
2018-10-21T06:14:24.302Z,20.40
2018-10-21T06:17:00.953Z,20.40
2018-10-21T06:19:35.846Z,20.40
2018-10-21T06:22:04.933Z,20.40
2018-10-21T06:24:34.237Z,20.40
2018-10-21T06:27:03.285Z,20.40
2018-10-21T06:29:33.511Z,20.40
2018-10-21T06:32:03.536Z,20.40
2018-10-21T06:34:33.657Z,20.40
2018-10-21T06:37:03.621Z,20.40
2018-10-21T06:39:33.313Z,20.40
2018-10-21T06:42:03.226Z,20.40
2018-10-21T06:44:32.264Z,20.40
2018-10-21T06:47:01.652Z,20.40
2018-10-21T06:49:31.032Z,20.40
2018-10-21T06:52:00.090Z,20.40
2018-10-21T06:54:29.137Z,20.30
2018-10-21T06:56:58.252Z,20.30
2018-10-21T06:59:27.238Z,20.30
2018-10-21T07:01:56.631Z,20.30
2018-10-21T07:04:25.751Z,20.30
2018-10-21T07:06:54.749Z,20.40
2018-10-21T07:09:23.807Z,20.40
2018-10-21T07:11:53.056Z,20.40
2018-10-21T07:14:22.575Z,20.40
2018-10-21T07:16:51.691Z,20.40
2018-10-21T07:19:21.008Z,20.40
2018-10-21T07:21:50.481Z,20.50
2018-10-21T07:24:19.510Z,20.50
2018-10-21T07:26:48.565Z,20.50
2018-10-21T07:29:17.774Z,20.50
2018-10-21T07:31:47.527Z,20.60
2018-10-21T07:34:17.169Z,20.60
2018-10-21T07:36:46.957Z,20.50
2018-10-21T07:39:17.465Z,20.60
2018-10-21T07:41:46.604Z,20.60
2018-10-21T07:44:16.065Z,20.70
2018-10-21T07:46:45.173Z,20.70
2018-10-21T07:49:15.090Z,20.80
2018-10-21T07:51:44.118Z,20.80
2018-10-21T07:54:13.179Z,20.80
2018-10-21T07:56:42.537Z,20.80
2018-10-21T07:59:11.613Z,20.90
2018-10-21T08:01:40.733Z,21.00
2018-10-21T08:04:09.906Z,21.10
2018-10-21T08:06:51.766Z,21.20
2018-10-21T08:09:20.874Z,21.30
2018-10-21T08:11:49.945Z,21.40
2018-10-21T08:14:19.465Z,21.60
2018-10-21T08:16:48.518Z,21.70
2018-10-21T08:19:17.562Z,21.80
2018-10-21T08:21:46.678Z,21.90
2018-10-21T08:24:16.409Z,22.10
2018-10-21T08:26:46.199Z,22.20
2018-10-21T08:29:15.273Z,22.20
2018-10-21T08:31:45.251Z,22.30
2018-10-21T08:34:15.044Z,22.40
2018-10-21T08:36:48.467Z,22.50
2018-10-21T08:39:17.709Z,22.60
2018-10-21T08:41:47.794Z,22.70
2018-10-21T08:44:16.855Z,22.70
2018-10-21T08:46:46.724Z,22.80
2018-10-21T08:49:16.619Z,22.90
2018-10-21T08:51:46.321Z,22.90
2018-10-21T08:54:15.430Z,23.00
2018-10-21T08:56:44.594Z,23.10
2018-10-21T08:59:14.175Z,23.20
2018-10-21T09:01:44.620Z,23.30
2018-10-21T09:04:13.773Z,23.30
2018-10-21T09:06:43.208Z,23.40
2018-10-21T09:09:12.637Z,23.50
2018-10-21T09:11:41.960Z,23.60
2018-10-21T09:14:12.443Z,23.60
2018-10-21T09:16:41.602Z,23.70
2018-10-21T09:19:12.828Z,23.70
2018-10-21T09:21:44.228Z,23.80
2018-10-21T09:24:15.140Z,23.90
2018-10-21T09:26:44.558Z,23.90
2018-10-21T09:29:13.780Z,24.00
2018-10-21T09:31:43.815Z,24.00
2018-10-21T09:34:13.671Z,24.00
2018-10-21T09:36:43.474Z,24.10
2018-10-21T09:39:14.246Z,24.10
2018-10-21T09:41:44.084Z,24.10
2018-10-21T09:44:13.138Z,24.20
2018-10-21T09:46:43.237Z,24.20
2018-10-21T09:49:13.761Z,24.30
2018-10-21T09:51:42.834Z,24.40
2018-10-21T09:54:11.913Z,24.40
2018-10-21T09:56:40.988Z,24.50
2018-10-21T09:59:10.053Z,24.60
2018-10-21T10:01:45.512Z,24.70
2018-10-21T10:04:14.653Z,24.70
2018-10-21T10:06:44.329Z,24.80
2018-10-21T10:09:13.910Z,24.80
2018-10-21T10:11:43.665Z,24.80
2018-10-21T10:14:13.107Z,24.90
2018-10-21T10:16:42.194Z,25.00
2018-10-21T10:19:11.316Z,25.00
2018-10-21T10:21:40.559Z,25.00
2018-10-21T10:24:10.221Z,25.10
2018-10-21T10:26:39.361Z,25.10
2018-10-21T10:29:08.464Z,25.10
2018-10-21T10:31:38.073Z,25.20
2018-10-21T10:34:07.846Z,25.20
2018-10-21T10:36:37.435Z,25.30
2018-10-21T10:39:09.844Z,25.30
2018-10-21T10:41:39.238Z,25.30
2018-10-21T10:44:08.545Z,25.40
2018-10-21T10:46:37.624Z,25.40
2018-10-21T10:49:07.717Z,25.40
2018-10-21T10:51:36.757Z,25.40
2018-10-21T10:54:06.113Z,25.50
2018-10-21T10:56:35.129Z,25.50
2018-10-21T10:59:04.251Z,25.50
2018-10-21T11:01:36.373Z,25.50
2018-10-21T11:04:05.843Z,25.50
2018-10-21T11:06:34.846Z,25.50
2018-10-21T11:09:06.040Z,25.50
2018-10-21T11:11:35.173Z,25.60
2018-10-21T11:14:05.453Z,25.60
2018-10-21T11:16:35.447Z,25.50
2018-10-21T11:19:04.527Z,25.60
2018-10-21T11:21:33.807Z,25.60
2018-10-21T11:24:02.895Z,25.60
2018-10-21T11:26:32.238Z,25.60
2018-10-21T11:29:01.334Z,25.60
2018-10-21T11:31:30.954Z,25.60
2018-10-21T11:34:00.752Z,25.60
2018-10-21T11:36:30.697Z,25.50
2018-10-21T11:38:59.743Z,25.60
2018-10-21T11:41:28.804Z,25.60
2018-10-21T11:43:58.841Z,25.60
2018-10-21T11:46:27.945Z,25.60
2018-10-21T11:49:01.654Z,25.50
2018-10-21T11:51:30.722Z,25.40
2018-10-21T11:53:59.812Z,25.40
2018-10-21T11:56:28.890Z,25.30
2018-10-21T11:58:57.994Z,25.20
2018-10-21T12:01:27.109Z,25.20
2018-10-21T12:03:56.216Z,25.10
2018-10-21T12:06:26.015Z,25.10
2018-10-21T12:08:59.884Z,25.00
2018-10-21T12:11:28.932Z,25.00
2018-10-21T12:13:57.985Z,24.90
2018-10-21T12:16:28.194Z,24.90
2018-10-21T12:18:58.104Z,24.80
2018-10-21T12:21:27.233Z,24.80
2018-10-21T12:23:56.286Z,24.80
2018-10-21T12:26:25.327Z,24.80
2018-10-21T12:28:54.428Z,24.70
2018-10-21T12:31:24.183Z,24.70
2018-10-21T12:33:53.851Z,24.70
2018-10-21T12:36:23.090Z,24.60
2018-10-21T12:38:52.095Z,24.60
2018-10-21T12:41:21.243Z,24.60
2018-10-21T12:43:50.342Z,24.60
2018-10-21T12:46:19.642Z,24.50
2018-10-21T12:48:49.036Z,24.50
2018-10-21T12:51:18.083Z,24.50
2018-10-21T12:53:47.348Z,24.40
2018-10-21T12:56:16.420Z,24.40
2018-10-21T12:58:45.482Z,24.40
2018-10-21T13:01:15.490Z,24.40
2018-10-21T13:03:44.481Z,24.40
2018-10-21T13:06:13.601Z,24.30
2018-10-21T13:08:42.693Z,24.30
2018-10-21T13:11:11.861Z,24.30
2018-10-21T13:13:41.916Z,24.30
2018-10-21T13:16:11.843Z,24.20
2018-10-21T13:18:40.858Z,24.20
2018-10-21T13:21:11.482Z,24.20
2018-10-21T13:23:40.569Z,24.20
2018-10-21T13:26:09.629Z,24.20
2018-10-21T13:28:39.547Z,24.10
2018-10-21T13:31:09.306Z,24.10
2018-10-21T13:33:38.728Z,24.10
2018-10-21T13:36:07.822Z,24.10
2018-10-21T13:38:37.262Z,24.10
2018-10-21T13:41:08.622Z,24.10
2018-10-21T13:43:37.674Z,24.10
2018-10-21T13:46:06.844Z,24.00
2018-10-21T13:48:36.845Z,24.00
2018-10-21T13:51:06.243Z,23.90
2018-10-21T13:53:35.341Z,23.80
2018-10-21T13:56:04.489Z,23.80
2018-10-21T13:58:33.897Z,23.80
2018-10-21T14:01:04.490Z,23.70
2018-10-21T14:03:34.149Z,23.70
2018-10-21T14:06:03.403Z,23.70
2018-10-21T14:08:33.109Z,23.70
2018-10-21T14:11:02.169Z,23.60
2018-10-21T14:13:31.758Z,23.60
2018-10-21T14:16:00.812Z,23.60
2018-10-21T14:18:29.875Z,23.50
2018-10-21T14:20:58.976Z,23.50
2018-10-21T14:23:28.017Z,23.50
2018-10-21T14:25:57.729Z,23.50
2018-10-21T14:28:26.795Z,23.50
2018-10-21T14:30:56.452Z,23.40
2018-10-21T14:33:25.797Z,23.40
2018-10-21T14:35:54.883Z,23.40
2018-10-21T14:38:24.513Z,23.40
2018-10-21T14:40:53.456Z,23.40
2018-10-21T14:43:22.526Z,23.30
2018-10-21T14:45:51.702Z,23.30
2018-10-21T14:48:21.658Z,23.30
2018-10-21T14:50:50.739Z,23.30
2018-10-21T14:53:20.436Z,23.30
2018-10-21T14:55:49.485Z,23.30
2018-10-21T14:58:18.529Z,23.30
2018-10-21T15:00:47.628Z,23.20
2018-10-21T15:03:16.738Z,23.20
2018-10-21T15:05:45.856Z,23.20
2018-10-21T15:08:15.020Z,23.20
2018-10-21T15:10:44.811Z,23.20
2018-10-21T15:13:14.770Z,23.20
2018-10-21T15:15:43.925Z,23.20
2018-10-21T15:18:13.009Z,23.20
2018-10-21T15:20:42.045Z,23.10
2018-10-21T15:23:11.781Z,23.10
2018-10-21T15:25:41.555Z,23.10
2018-10-21T15:28:10.775Z,23.10
2018-10-21T15:30:40.362Z,23.10
2018-10-21T15:33:10.496Z,23.10
2018-10-21T15:35:39.640Z,23.10
2018-10-21T15:38:08.984Z,23.10
2018-10-21T15:40:38.299Z,23.10
2018-10-21T15:43:07.882Z,23.00
2018-10-21T15:45:38.017Z,23.00
2018-10-21T15:48:08.337Z,23.00
2018-10-21T15:50:37.943Z,23.00
2018-10-21T15:53:07.002Z,23.00
2018-10-21T15:55:36.057Z,23.00
2018-10-21T15:58:05.673Z,23.00
2018-10-21T16:00:34.720Z,23.00
2018-10-21T16:03:03.897Z,22.90
2018-10-21T16:05:33.011Z,22.90
2018-10-21T16:08:02.130Z,22.90
2018-10-21T16:10:32.798Z,22.90
2018-10-21T16:13:02.695Z,22.90
2018-10-21T16:15:31.829Z,22.90
2018-10-21T16:18:00.853Z,22.90
2018-10-21T16:20:31.154Z,22.80
2018-10-21T16:23:00.223Z,22.80
2018-10-21T16:25:30.318Z,22.80
2018-10-21T16:27:59.700Z,22.80
2018-10-21T16:30:29.278Z,22.80
2018-10-21T16:32:59.349Z,22.80
2018-10-21T16:35:28.282Z,22.80
2018-10-21T16:37:57.354Z,22.80
2018-10-21T16:40:26.527Z,22.70
2018-10-21T16:42:55.746Z,22.70
2018-10-21T16:45:26.135Z,22.70
2018-10-21T16:47:55.849Z,22.70
2018-10-21T16:50:25.390Z,22.70
2018-10-21T16:52:55.088Z,22.70
2018-10-21T16:55:24.209Z,22.70
2018-10-21T16:57:53.517Z,22.60
2018-10-21T17:00:22.681Z,22.60
2018-10-21T17:02:52.347Z,22.60
2018-10-21T17:05:22.164Z,22.60
2018-10-21T17:07:51.450Z,22.60
2018-10-21T17:10:20.946Z,22.60
2018-10-21T17:12:49.748Z,22.50
2018-10-21T17:15:18.991Z,22.50
2018-10-21T17:17:48.422Z,22.50
2018-10-21T17:20:17.552Z,22.50
2018-10-21T17:22:46.617Z,22.50
2018-10-21T17:25:16.625Z,22.50
2018-10-21T17:27:45.717Z,22.50
2018-10-21T17:30:17.175Z,22.50
2018-10-21T17:32:46.950Z,22.50
2018-10-21T17:35:16.922Z,22.50
2018-10-21T17:37:46.661Z,22.50
2018-10-21T17:40:15.834Z,22.40
2018-10-21T17:42:44.880Z,22.40
2018-10-21T17:45:14.938Z,22.40
2018-10-21T17:47:45.142Z,22.40
2018-10-21T17:50:15.522Z,22.40
2018-10-21T17:52:45.091Z,22.40
2018-10-21T17:55:14.630Z,22.40
2018-10-21T17:57:43.480Z,22.30
2018-10-21T18:00:13.364Z,22.30
2018-10-21T18:02:42.516Z,22.30
2018-10-21T18:05:13.476Z,22.30
2018-10-21T18:07:43.057Z,22.30
2018-10-21T18:10:12.891Z,22.30
2018-10-21T18:12:41.926Z,22.30
2018-10-21T18:15:12.136Z,22.30
2018-10-21T18:17:41.774Z,22.30
2018-10-21T18:20:11.894Z,22.30
2018-10-21T18:22:41.546Z,22.30
2018-10-21T18:25:11.655Z,22.30
2018-10-21T18:27:41.125Z,22.30
2018-10-21T18:30:12.321Z,22.30
2018-10-21T18:32:42.222Z,22.30
2018-10-21T18:35:13.541Z,22.30
2018-10-21T18:37:43.116Z,22.30
2018-10-21T18:40:12.746Z,22.30
2018-10-21T18:42:42.071Z,22.30
2018-10-21T18:45:13.128Z,22.30
2018-10-21T18:47:43.742Z,22.30
2018-10-21T18:50:14.775Z,22.30
2018-10-21T18:52:43.869Z,22.20
2018-10-21T18:55:13.621Z,22.20
2018-10-21T18:57:43.122Z,22.20
2018-10-21T19:00:14.731Z,22.20
2018-10-21T19:02:43.824Z,22.20
2018-10-21T19:05:13.763Z,22.10
2018-10-21T19:07:42.993Z,22.10
2018-10-21T19:10:13.634Z,22.10
2018-10-21T19:12:43.486Z,22.10
2018-10-21T19:15:13.559Z,22.10
2018-10-21T19:17:42.899Z,22.10
2018-10-21T19:20:13.790Z,22.10
2018-10-21T19:22:43.367Z,22.10
2018-10-21T19:25:14.447Z,22.10
2018-10-21T19:27:44.428Z,22.10
2018-10-21T19:30:15.545Z,22.10
2018-10-21T19:32:45.195Z,22.00
2018-10-21T19:35:16.020Z,22.00
2018-10-21T19:37:45.647Z,22.00
2018-10-21T19:40:15.673Z,22.00
2018-10-21T19:42:45.142Z,22.00
2018-10-21T19:45:15.345Z,22.00
2018-10-21T19:47:45.474Z,22.00
2018-10-21T19:50:16.334Z,22.00
2018-10-21T19:52:45.605Z,21.90
2018-10-21T19:55:14.840Z,21.90
2018-10-21T19:57:44.024Z,21.90
2018-10-21T20:00:16.161Z,21.90
2018-10-21T20:02:45.680Z,21.90
2018-10-21T20:05:15.038Z,21.90
2018-10-21T20:07:44.503Z,21.90
2018-10-21T20:10:14.596Z,21.90
2018-10-21T20:12:43.582Z,21.90
2018-10-21T20:15:13.211Z,21.90
2018-10-21T20:17:42.267Z,21.80
2018-10-21T20:20:12.538Z,21.80
2018-10-21T20:22:43.079Z,21.80
2018-10-21T20:25:12.798Z,21.80
2018-10-21T20:27:41.803Z,21.80
2018-10-21T20:30:12.547Z,21.80
2018-10-21T20:32:42.453Z,21.80
2018-10-21T20:35:12.475Z,21.80
2018-10-21T20:37:42.259Z,21.80
2018-10-21T20:40:11.733Z,21.80
2018-10-21T20:42:40.687Z,21.80
2018-10-21T20:45:12.577Z,21.70
2018-10-21T20:47:42.523Z,21.70
2018-10-21T20:50:11.594Z,21.70
2018-10-21T20:52:40.654Z,21.70
2018-10-21T20:55:11.352Z,21.70
2018-10-21T20:57:40.489Z,21.70
2018-10-21T21:00:09.628Z,21.70
2018-10-21T21:02:39.534Z,21.70
2018-10-21T21:05:10.399Z,21.70
2018-10-21T21:07:40.164Z,21.70
2018-10-21T21:10:09.709Z,21.70
2018-10-21T21:12:38.863Z,21.70
2018-10-21T21:15:08.404Z,21.60
2018-10-21T21:17:37.534Z,21.60
2018-10-21T21:20:07.726Z,21.60
2018-10-21T21:22:36.994Z,21.60
2018-10-21T21:25:06.838Z,21.60
2018-10-21T21:27:35.891Z,21.60
2018-10-21T21:30:06.759Z,21.60
2018-10-21T21:32:36.378Z,21.60
2018-10-21T21:35:07.154Z,21.60
2018-10-21T21:37:36.840Z,21.60
2018-10-21T21:40:07.345Z,21.60
2018-10-21T21:42:37.164Z,21.60
2018-10-21T21:45:06.619Z,21.50
2018-10-21T21:47:36.571Z,21.50
2018-10-21T21:50:06.734Z,21.50
2018-10-21T21:52:35.821Z,21.50
2018-10-21T21:55:05.775Z,21.50
2018-10-21T21:57:34.868Z,21.50
2018-10-21T22:00:05.657Z,21.50
2018-10-21T22:02:35.030Z,21.50
2018-10-21T22:05:04.693Z,21.50
2018-10-21T22:07:33.790Z,21.50
2018-10-21T22:10:02.942Z,21.50
2018-10-21T22:12:31.905Z,21.50
2018-10-21T22:15:01.124Z,21.50
2018-10-21T22:17:30.195Z,21.50
2018-10-21T22:19:59.246Z,21.50
2018-10-21T22:22:28.295Z,21.50
2018-10-21T22:24:58.056Z,21.50
2018-10-21T22:27:27.113Z,21.40
2018-10-21T22:29:57.083Z,21.40
2018-10-21T22:32:26.814Z,21.40
2018-10-21T22:34:56.242Z,21.40
2018-10-21T22:37:25.779Z,21.40
2018-10-21T22:39:56.412Z,21.40
2018-10-21T22:42:25.482Z,21.40
2018-10-21T22:44:54.641Z,21.40
2018-10-21T22:47:24.497Z,21.30
2018-10-21T22:49:54.156Z,21.40
2018-10-21T22:52:23.193Z,21.30
2018-10-21T22:54:52.869Z,21.30
2018-10-21T22:57:21.927Z,21.30
2018-10-21T22:59:51.648Z,21.30
2018-10-21T23:02:20.688Z,21.30
2018-10-21T23:04:49.812Z,21.30
2018-10-21T23:07:18.869Z,21.30
2018-10-21T23:09:47.897Z,21.30
2018-10-21T23:12:17.124Z,21.30
2018-10-21T23:14:46.110Z,21.30
2018-10-21T23:17:15.154Z,21.30
2018-10-21T23:19:47.543Z,21.30
2018-10-21T23:22:16.671Z,21.30
2018-10-21T23:24:47.106Z,21.30
2018-10-21T23:27:16.164Z,21.30
2018-10-21T23:29:45.886Z,21.20
2018-10-21T23:32:15.471Z,21.20
2018-10-21T23:34:44.950Z,21.20
2018-10-21T23:37:14.569Z,21.20
2018-10-21T23:39:43.897Z,21.20
2018-10-21T23:42:13.770Z,21.20
2018-10-21T23:44:43.080Z,21.20
2018-10-21T23:47:12.153Z,21.20
2018-10-21T23:49:41.590Z,21.20
2018-10-21T23:52:10.976Z,21.20
2018-10-21T23:54:39.954Z,21.20
2018-10-21T23:57:09.390Z,21.20
2018-10-21T23:59:38.495Z,21.10
